createdAt,value
2018-05-15T00:00:07.584Z,0
2018-05-15T00:05:07.729Z,0
2018-05-15T00:10:07.622Z,0
2018-05-15T00:15:07.435Z,0
2018-05-15T00:20:07.651Z,0
2018-05-15T00:25:07.581Z,0
2018-05-15T00:30:07.531Z,0
2018-05-15T00:35:07.532Z,0
2018-05-15T00:40:07.389Z,0
2018-05-15T00:45:07.340Z,0
2018-05-15T00:50:07.477Z,0
2018-05-15T00:55:07.592Z,0
2018-05-15T01:00:07.633Z,0
2018-05-15T01:05:07.451Z,0
2018-05-15T01:10:07.370Z,0
2018-05-15T01:15:07.380Z,0
2018-05-15T01:20:08.251Z,0
2018-05-15T01:25:07.468Z,0
2018-05-15T01:30:07.377Z,0
2018-05-15T01:35:07.506Z,0
2018-05-15T01:40:07.436Z,0
2018-05-15T01:45:07.371Z,0
2018-05-15T01:50:07.205Z,0
2018-05-15T01:55:07.391Z,0
2018-05-15T02:00:07.377Z,0
2018-05-15T02:05:07.343Z,0
2018-05-15T02:10:07.327Z,0
2018-05-15T02:15:07.337Z,0
2018-05-15T02:20:07.470Z,0
2018-05-15T02:25:07.334Z,0
2018-05-15T02:30:07.121Z,0
2018-05-15T02:35:07.229Z,0
2018-05-15T02:40:07.280Z,0
2018-05-15T02:45:07.334Z,0
2018-05-15T02:50:07.445Z,0
2018-05-15T02:55:07.248Z,0
2018-05-15T03:00:07.363Z,0
2018-05-15T03:05:07.309Z,0
2018-05-15T03:10:07.334Z,0
2018-05-15T03:15:07.130Z,0
2018-05-15T03:20:07.222Z,0
2018-05-15T03:25:07.164Z,0
2018-05-15T03:30:07.243Z,0
2018-05-15T03:35:07.234Z,0
2018-05-15T03:40:07.284Z,0.8
2018-05-15T03:45:07.305Z,2.5
2018-05-15T03:50:07.173Z,3.3
2018-05-15T03:55:07.023Z,5
2018-05-15T04:00:07.264Z,7.5
2018-05-15T04:05:07.162Z,9.2
2018-05-15T04:10:07.224Z,11.7
2018-05-15T04:15:07.174Z,14.2
2018-05-15T04:20:07.207Z,17.5
2018-05-15T04:25:07.161Z,20
2018-05-15T04:30:07.318Z,22.5
2018-05-15T04:35:07.288Z,27.5
2018-05-15T04:40:07.138Z,34.2
2018-05-15T04:45:07.207Z,40
2018-05-15T04:50:07.201Z,44.2
2018-05-15T04:55:06.966Z,44.2
2018-05-15T05:00:06.966Z,44.2
2018-05-15T05:05:07.019Z,47.5
2018-05-15T05:10:07.023Z,54.2
2018-05-15T05:15:07.010Z,55.8
2018-05-15T05:20:07.002Z,57.5
2018-05-15T05:25:06.991Z,59.2
2018-05-15T05:30:06.911Z,62.5
2018-05-15T05:35:07.018Z,67.5
2018-05-15T05:40:06.966Z,69.2
2018-05-15T05:45:06.816Z,73.3
2018-05-15T05:50:07.094Z,77.5
2018-05-15T05:55:07.025Z,81.7
2018-05-15T06:00:06.963Z,87.5
2018-05-15T06:05:07.045Z,90
2018-05-15T06:10:07.152Z,97.5
2018-05-15T06:15:06.721Z,106.7
2018-05-15T06:20:06.972Z,112.5
2018-05-15T06:25:07.014Z,118.3
2018-05-15T06:30:06.785Z,121.7
2018-05-15T06:35:06.726Z,125
2018-05-15T06:40:06.780Z,130.8
2018-05-15T06:45:06.947Z,149.2
2018-05-15T06:50:06.767Z,178.3
2018-05-15T06:55:06.842Z,183.3
2018-05-15T07:00:06.874Z,190.8
2018-05-15T07:05:06.836Z,197.5
2018-05-15T07:10:06.759Z,198.3
2018-05-15T07:15:06.698Z,198.3
2018-05-15T07:20:06.966Z,199.2
2018-05-15T07:25:06.918Z,199.2
2018-05-15T07:30:06.880Z,209.2
2018-05-15T07:35:06.699Z,207.5
2018-05-15T07:40:06.807Z,206.7
2018-05-15T07:45:06.767Z,205.8
2018-05-15T07:50:07.010Z,204.2
2018-05-15T07:55:06.817Z,206.7
2018-05-15T08:00:06.866Z,206.7
2018-05-15T08:05:06.924Z,209.2
2018-05-15T08:10:06.911Z,210.8
2018-05-15T08:15:06.769Z,214.2
2018-05-15T08:20:06.590Z,218.3
2018-05-15T08:25:06.691Z,223.3
2018-05-15T08:30:06.591Z,228.3
2018-05-15T08:35:06.720Z,235.8
2018-05-15T08:40:07.704Z,245
2018-05-15T08:45:06.554Z,250
2018-05-15T08:50:07.002Z,263.3
2018-05-15T08:55:06.596Z,274.2
2018-05-15T09:00:06.693Z,291.7
2018-05-15T09:05:06.698Z,302.5
2018-05-15T09:10:06.919Z,330
2018-05-15T09:15:06.783Z,354.2
2018-05-15T09:20:06.878Z,375
2018-05-15T09:25:06.741Z,397.5
2018-05-15T09:30:06.720Z,430
2018-05-15T09:35:06.826Z,457.5
2018-05-15T09:40:06.588Z,483.3
2018-05-15T09:45:06.775Z,507.5
2018-05-15T09:50:06.624Z,540.8
2018-05-15T09:55:06.447Z,582.5
2018-05-15T10:00:06.751Z,622.5
2018-05-15T10:05:06.618Z,649.2
2018-05-15T10:10:06.464Z,685.8
2018-05-15T10:15:06.521Z,732.5
2018-05-15T10:20:06.529Z,750
2018-05-15T10:25:06.527Z,789.2
2018-05-15T10:30:06.542Z,827.5
2018-05-15T10:35:06.619Z,876.7
2018-05-15T10:40:06.593Z,911.7
2018-05-15T10:45:06.632Z,966.7
2018-05-15T10:50:06.426Z,1007.5
2018-05-15T10:55:06.543Z,1047.5
2018-05-15T11:00:06.702Z,1059.2
2018-05-15T11:05:06.361Z,1117.5
2018-05-15T11:10:06.688Z,1120
2018-05-15T11:15:06.529Z,1180
2018-05-15T11:20:06.444Z,1180.8
2018-05-15T11:25:06.500Z,1203.3
2018-05-15T11:30:06.625Z,1220.8
2018-05-15T11:35:06.496Z,1299.2
2018-05-15T11:40:06.399Z,1380.8
2018-05-15T11:45:06.545Z,1328.3
2018-05-15T11:50:06.781Z,1407.5
2018-05-15T11:55:06.334Z,1440
2018-05-15T12:00:06.545Z,1493.3
2018-05-15T12:05:06.406Z,1501.7
2018-05-15T12:10:06.270Z,1493.3
2018-05-15T12:15:06.521Z,1042.5
2018-05-15T12:20:06.458Z,1525.8
2018-05-15T12:25:06.510Z,1543.3
2018-05-15T12:30:06.495Z,1539.2
2018-05-15T12:35:06.437Z,1595.8
2018-05-15T12:40:06.629Z,1635.8
2018-05-15T12:45:06.250Z,1653.3
2018-05-15T12:50:06.516Z,1675.8
2018-05-15T12:55:06.284Z,1714.2
2018-05-15T13:00:06.505Z,1464.2
2018-05-15T13:05:06.212Z,1829.2
2018-05-15T13:10:06.570Z,1797.5
2018-05-15T13:15:06.474Z,1811.7
2018-05-15T13:20:06.402Z,1800
2018-05-15T13:25:06.485Z,1799.2
2018-05-15T13:30:06.140Z,1847.5
2018-05-15T13:35:06.158Z,1825.8
2018-05-15T13:40:06.303Z,1813.3
2018-05-15T13:45:06.230Z,1814.2
2018-05-15T13:50:06.141Z,1827.5
2018-05-15T13:55:06.437Z,1793.3
2018-05-15T14:00:06.310Z,1811.7
2018-05-15T14:05:06.238Z,1781.7
2018-05-15T14:10:06.085Z,1718.3
2018-05-15T14:15:06.294Z,1647.5
2018-05-15T14:20:06.227Z,1728.3
2018-05-15T14:25:06.288Z,1650
2018-05-15T14:30:06.316Z,1627.5
2018-05-15T14:35:06.074Z,1580.8
2018-05-15T14:40:06.168Z,968.3
2018-05-15T14:45:06.122Z,1533.3
2018-05-15T14:50:06.198Z,1467.5
2018-05-15T14:55:06.361Z,1466.7
2018-05-15T15:00:06.371Z,1437.5
2018-05-15T15:05:06.323Z,1415.8
2018-05-15T15:10:06.360Z,1400.8
2018-05-15T15:15:06.335Z,1313.3
2018-05-15T15:20:06.252Z,1341.7
2018-05-15T15:25:06.057Z,1272.5
2018-05-15T15:30:06.029Z,1191.7
2018-05-15T15:35:06.172Z,1142.5
2018-05-15T15:40:05.987Z,1072.5
2018-05-15T15:45:06.015Z,1025
2018-05-15T15:50:05.980Z,950
2018-05-15T15:55:05.980Z,866.7
2018-05-15T16:00:06.216Z,719.2
2018-05-15T16:05:06.228Z,346.7
2018-05-15T16:10:06.270Z,206.7
2018-05-15T16:15:06.108Z,169.2
2018-05-15T16:20:06.233Z,154.2
2018-05-15T16:25:05.900Z,146.7
2018-05-15T16:30:05.886Z,140
2018-05-15T16:35:06.178Z,128.3
2018-05-15T16:40:06.225Z,123.3
2018-05-15T16:45:06.175Z,110.8
2018-05-15T16:50:05.927Z,104.2
2018-05-15T16:55:05.852Z,96.7
2018-05-15T17:00:05.998Z,90
2018-05-15T17:05:05.865Z,85.8
2018-05-15T17:10:06.050Z,83.3
2018-05-15T17:15:06.039Z,80
2018-05-15T17:20:06.127Z,78.3
2018-05-15T17:25:06.043Z,80.8
2018-05-15T17:30:06.113Z,77.5
2018-05-15T17:35:05.926Z,76.7
2018-05-15T17:40:06.045Z,73.3
2018-05-15T17:45:05.984Z,68.3
2018-05-15T17:50:05.768Z,65
2018-05-15T17:55:06.093Z,61.7
2018-05-15T18:00:05.892Z,57.5
2018-05-15T18:05:05.984Z,53.3
2018-05-15T18:10:05.742Z,50
2018-05-15T18:15:05.876Z,46.7
2018-05-15T18:20:05.915Z,42.5
2018-05-15T18:25:05.655Z,39.2
2018-05-15T18:30:05.688Z,35.8
2018-05-15T18:35:05.685Z,32.5
2018-05-15T18:40:05.842Z,29.2
2018-05-15T18:45:05.948Z,25.8
2018-05-15T18:50:05.718Z,21.7
2018-05-15T18:55:05.649Z,18.3
2018-05-15T19:00:05.758Z,15.8
2018-05-15T19:05:05.777Z,12.5
2018-05-15T19:10:05.912Z,9.2
2018-05-15T19:15:05.803Z,6.7
2018-05-15T19:20:05.677Z,5
2018-05-15T19:25:05.744Z,3.3
2018-05-15T19:30:05.838Z,2.5
2018-05-15T19:35:05.797Z,0.8
2018-05-15T19:40:05.567Z,0
2018-05-15T19:45:05.939Z,0
2018-05-15T19:50:05.808Z,0
2018-05-15T19:55:05.586Z,0
2018-05-15T20:00:05.649Z,0
2018-05-15T20:05:05.691Z,0
2018-05-15T20:10:05.714Z,0
2018-05-15T20:15:05.829Z,0
2018-05-15T20:20:05.593Z,0
2018-05-15T20:25:05.543Z,0
2018-05-15T20:30:05.501Z,0
2018-05-15T20:35:05.712Z,0
2018-05-15T20:40:05.824Z,0
2018-05-15T20:45:05.665Z,0
2018-05-15T20:50:05.502Z,0
2018-05-15T20:55:05.515Z,0
2018-05-15T21:00:05.649Z,0
2018-05-15T21:05:05.584Z,0
2018-05-15T21:10:05.507Z,0
2018-05-15T21:15:05.753Z,0
2018-05-15T21:20:05.641Z,0
2018-05-15T21:25:05.720Z,0
2018-05-15T21:30:05.702Z,0
2018-05-15T21:35:05.587Z,0
2018-05-15T21:40:05.571Z,0
2018-05-15T21:45:05.723Z,0
2018-05-15T21:50:05.628Z,0
2018-05-15T21:55:05.810Z,0
2018-05-15T22:00:05.507Z,0
2018-05-15T22:05:05.747Z,0
2018-05-15T22:10:05.641Z,0
2018-05-15T22:15:05.899Z,0
2018-05-15T22:20:05.623Z,0
2018-05-15T22:25:05.563Z,0
2018-05-15T22:30:05.588Z,0
2018-05-15T22:35:05.614Z,0
2018-05-15T22:40:05.562Z,0
2018-05-15T22:45:05.565Z,0
2018-05-15T22:50:05.558Z,0
2018-05-15T22:55:05.442Z,0
2018-05-15T23:00:05.655Z,0
2018-05-15T23:05:05.527Z,0
2018-05-15T23:10:05.639Z,0
2018-05-15T23:15:05.443Z,0
2018-05-15T23:20:05.472Z,0
2018-05-15T23:25:05.510Z,0
2018-05-15T23:30:05.713Z,0
2018-05-15T23:35:05.436Z,0
2018-05-15T23:40:05.535Z,0
2018-05-15T23:45:05.226Z,0
2018-05-15T23:50:05.572Z,0
2018-05-15T23:55:05.421Z,0
